Startpagina
METAR-TAF:

METAR-TAF

Vliegvelden :

Port Moresby, Papoea-Nieuw-Guinea

Luchthaven Port Moresby

breedte: 09-26S, lengte: 147-13E, hoogte: 38 m

Actueel weer

Dit bericht is 1 uur en het 4 minuten geleden gemaakt, om 09:00 UTC
Wind 7 kt uit het zuidzuidwesten
Temperatuur 29°C
Vochtigheid 74%
Druk 1008 hPa
Zicht 10 km of meer
Weinig wolken op 2500 ft

METAR: AYPY 190900Z 21007KT 9999 FEW025 29/24 Q1008

Tijdstip: 20:04 (10:04 UTC)

Verwachting

Dit bericht is 8 uur en het 4 minuten geleden gemaakt, om 02:00 UTC
Verwachting geldig van 19 om 06 UTC tot 20 om 06 UTC
Wind 8 kt uit het zuidzuidoosten
Zicht 10 km of meer
Verspreide wolken op 1800 ft
Gebroken wolken op 4000 ft
lichte regenbuien
Van 19 om 1000 UTC
Wind 3 kt uit variabele richting
Zicht 10 km of meer
Verspreide wolken op 4000 ft

TAF: AYPY 190200Z 1906/2006 16008KT 9999 -SHRA SCT018 BKN040 FM191000 VRB03KT 9999 SCT040

Waarnemingen en weersverwachtingen van meer dan 4000 vliegvelden (METAR en TAF).

De beschikbare stations zijn de gele en rode punten op de kaart.

Ga met uw muis naar het station om de naam te zien.

Klik dan om waarnemingen en weersverwachtingen te zien.

kaart wijzigen: klik op de groene knoppen met een zwart kruis om in te zoomen, op de groene knop met een streepje om uit te zoomen of op de groene pijlen voor aangrenzende kaarten.


METAR-TAF: